• pl
  • eng

Awiacja
Kliknij na pogrubioną czerwoną nazwę, aby odkodować depeszę. 06:01 24.01.2018
  • WIND
  • SIGNIFICANT EURO
  • SIGNIFICANT
  • SIGMET
  • AIRMET
  • TAF FC
  • TAF FT
  • METAR GG30
  • METAR GG00


METAR EPBY 240500Z 20008KT 170V240 5000 -RA BR FEW010 BKN031 01/M00
Q1019 =

METAR EPGD 240500Z 19015KT 3800 -SN BR OVC006 M00/M01 Q1015
R11/190095 =

METAR EPKK 240500Z 03003KT 3000 BR SCT050 M04/M05 Q1026 =

METAR EPKT 240500Z 17006KT 4000 BR NSC M01/M03 Q1024 =

METAR EPLB 240500Z 17007KT 8000 FEW006 OVC032 M05/M05 Q1027 =

METAR EPLL 240500Z 13006KT 3400 BR NSC M02/M03 Q1022 =

METAR EPMO 240500Z 16009KT 6000 BKN024 M04/M05 Q1023 =

METAR EPPO 240500Z 20011KT 6000 BKN011 03/02 Q1019 R10/290095 =

METAR EPRA 240500Z 17011KT 7000 BKN033 M04/M05 Q1025=

METAR EPRZ 240500Z 09005KT 7000 OVC036 M06/M07 Q1028 R27/81//95 =

METAR EPSC 240500Z 18005KT 150V230 7000 BKN003 OVC004 04/04 Q1015
R13/72//95 =

METAR EPSY 240500Z NIL=

METAR EPWA 240500Z 16009KT 9999 BKN029 M04/M06 Q1024 NOSIG=

METAR EPWR 240500Z 20006KT 170V230 9999 SCT030 BKN035 OVC042 05/01
Q1022 =

METAR EPZG 240500Z 20011KT 3500 -DZ BR SCT006 BKN008 OVC011 04/04
Q1019 RERA =
 METAR EPRZ
Lokalizacja:EPRZ Rzeszów Jasionka
Czas:05:00 UTC
Średni kierunek wiatru:90 °
Średnia prędkość wiatru:5 węzłów
Widzialność:7 kilometrów
Pierwsza warstwa chmur:8/8, wysokość podstawy 3600 FT
Temperatura powietrza:-6 °C
Temperatura punktu rosy:-7 °C
Ciśnienie QNH:1028 hPa
Stan drogi startowej:
Wskaźnik drogi:27
Rodzaj pokrycia drogi:ubity lub zwalcowany śnieg
Rozległość zanieczyszczenia drogi:mniej niż 10% drogi startowej zanieczyszczone (pokryte)
Głębokość pokrycia drogi:brak danych
Współczynnik sczepności / hamowanie:hamowanie dobre
Awiacja.imgw.pl jest pogodowym serwisem informacyjnym
Instytutu Meteorologii i Gospodarki Wodnej Państwowego Instytutu Badawczego.
Copyright IMGW PIB 2009-2011© Wszelkie prawa zastrzeżone.